Time;durP1;ratioP1;P1;durP2;ratioP2;P2;SDS_P1;SDS_P2;PMS_P1;PMS_P2;Temp;Humidity;BMP_temperature;BMP_pressure;BME280_temperature;BME280_humidity;BME280_pressure;Samples;Min_cycle;Max_cycle;Signal;HPM_P1;HPM_P2
2022/06/26 00:02:34;;;;;;;7.17;6.17;;;;;;;19.28;60.24;100526.73;3434347;80;21386;-77
2022/06/26 00:07:25;;;;;;;6.33;5.65;;;;;;;19.20;60.47;100520.31;3467266;80;21203;-77
2022/06/26 00:12:17;;;;;;;11.10;5.80;;;;;;;19.12;60.53;100523.55;3456649;80;20915;-77
2022/06/26 00:17:08;;;;;;;6.72;5.35;;;;;;;19.05;60.80;100526.80;3480789;79;21182;-77
2022/06/26 00:22:00;;;;;;;8.25;6.10;;;;;;;18.99;60.83;100533.48;3483052;79;21037;-77
2022/06/26 00:26:51;;;;;;;8.78;5.97;;;;;;;18.91;60.93;100536.30;3414470;79;21824;-77
2022/06/26 00:31:42;;;;;;;6.42;5.83;;;;;;;18.82;61.23;100535.17;3496125;79;20924;-77
2022/06/26 00:36:34;;;;;;;5.78;5.22;;;;;;;18.71;61.47;100540.61;3452982;79;20983;-77
2022/06/26 00:41:25;;;;;;;7.33;5.47;;;;;;;18.64;61.73;100536.36;3458620;79;21565;-77
2022/06/26 00:46:16;;;;;;;6.40;5.58;;;;;;;18.60;61.95;100543.45;3484946;79;20974;-77
2022/06/26 00:51:07;;;;;;;7.35;5.45;;;;;;;18.54;61.98;100545.32;3466162;79;20919;-77
2022/06/26 00:55:59;;;;;;;6.42;5.20;;;;;;;18.46;62.25;100550.74;3478984;79;21662;-76
2022/06/26 01:00:51;;;;;;;7.00;5.37;;;;;;;18.41;62.30;100551.27;3533328;79;20966;-76
2022/06/26 01:05:42;;;;;;;8.08;5.78;;;;;;;18.35;62.60;100551.36;3454994;79;20928;-76
2022/06/26 01:10:34;;;;;;;6.83;5.35;;;;;;;18.28;62.65;100553.25;3458121;79;38711;-77
2022/06/26 01:15:27;;;;;;;6.72;5.30;;;;;;;18.21;62.87;100555.57;3437765;80;22613;-76
2022/06/26 01:20:18;;;;;;;6.53;5.87;;;;;;;18.12;63.11;100560.53;3439350;80;20968;-77
2022/06/26 01:25:09;;;;;;;6.30;5.70;;;;;;;18.06;63.13;100564.14;3427066;80;21678;-76
2022/06/26 01:30:01;;;;;;;6.87;6.28;;;;;;;18.01;63.19;100565.98;3400526;80;21823;-77
2022/06/26 01:34:54;;;;;;;6.83;5.45;;;;;;;17.97;63.29;100567.35;3430244;80;20892;-76
2022/06/26 01:39:47;;;;;;;6.33;5.50;;;;;;;17.90;63.50;100565.25;3404329;80;21066;-76
2022/06/26 01:44:38;;;;;;;6.03;5.42;;;;;;;17.83;63.66;100571.05;3436533;80;20972;-76
2022/06/26 01:49:30;;;;;;;8.75;5.83;;;;;;;17.80;63.86;100576.34;3435314;80;21415;-77
2022/06/26 01:54:21;;;;;;;6.20;5.60;;;;;;;17.73;63.94;100586.08;3445435;80;21212;-77
2022/06/26 01:59:13;;;;;;;6.87;6.17;;;;;;;17.67;64.15;100591.86;3497298;80;20960;-76
2022/06/26 02:04:06;;;;;;;7.35;6.65;;;;;;;17.65;64.31;100594.96;3496037;80;21501;-76
2022/06/26 02:08:57;;;;;;;6.97;5.92;;;;;;;17.59;64.39;100592.43;3439922;80;20966;-76
2022/06/26 02:13:50;;;;;;;8.33;6.60;;;;;;;17.56;64.58;100595.95;3445218;80;20959;-77
2022/06/26 02:18:44;;;;;;;6.20;5.60;;;;;;;17.51;64.70;100597.34;3414781;80;20956;-76
2022/06/26 02:23:38;;;;;;;6.97;6.30;;;;;;;17.46;64.77;100596.99;3439110;80;21042;-76
2022/06/26 02:28:29;;;;;;;5.80;5.30;;;;;;;17.42;65.01;100600.11;3463096;80;21146;-76
2022/06/26 02:33:23;;;;;;;7.03;6.37;;;;;;;17.37;65.06;100600.61;3451392;80;20976;-77
2022/06/26 02:38:15;;;;;;;6.87;6.25;;;;;;;17.35;65.18;100605.02;3405801;80;20921;-77
2022/06/26 02:43:08;;;;;;;6.40;5.80;;;;;;;17.31;65.26;100604.19;3441956;80;21003;-77
2022/06/26 02:48:00;;;;;;;6.37;5.78;;;;;;;17.29;65.50;100610.33;3433040;80;21447;-77
2022/06/26 02:52:51;;;;;;;6.83;5.53;;;;;;;17.28;65.61;100607.30;3478908;79;22048;-77
2022/06/26 02:57:42;;;;;;;6.70;6.17;;;;;;;17.27;65.82;100616.05;3437193;80;20947;-76
2022/06/26 03:02:34;;;;;;;5.72;5.22;;;;;;;17.30;65.96;100618.66;3465339;80;22019;-76
2022/06/26 03:07:27;;;;;;;6.28;5.67;;;;;;;17.32;66.12;100618.19;3456786;80;21031;-77
2022/06/26 03:12:18;;;;;;;6.17;5.67;;;;;;;17.41;66.10;100625.09;3410405;80;20963;-76
2022/06/26 03:17:10;;;;;;;7.87;6.30;;;;;;;18.08;65.85;100634.70;3506486;79;21347;-76
2022/06/26 03:22:01;;;;;;;6.72;6.12;;;;;;;19.33;64.55;100623.71;3468056;79;21030;-76
2022/06/26 03:26:53;;;;;;;6.80;6.10;;;;;;;20.52;62.71;100625.38;3472267;79;20915;-76
2022/06/26 03:31:44;;;;;;;6.17;5.65;;;;;;;21.57;60.75;100625.20;3489241;79;20962;-77
2022/06/26 03:36:37;;;;;;;6.40;5.90;;;;;;;22.57;59.13;100627.75;3434223;80;20955;-77
2022/06/26 03:41:29;;;;;;;6.12;5.62;;;;;;;23.19;57.33;100629.98;3430681;79;22784;-77
2022/06/26 03:46:21;;;;;;;6.85;5.85;;;;;;;23.18;56.31;100636.23;3487839;79;20951;-77
2022/06/26 03:51:13;;;;;;;7.03;6.28;;;;;;;22.63;56.22;100631.53;3509605;79;22017;-77
2022/06/26 03:56:05;;;;;;;7.12;5.95;;;;;;;21.68;56.80;100640.75;3513016;79;20995;-77
2022/06/26 04:00:57;;;;;;;7.22;6.45;;;;;;;20.90;57.86;100636.73;3482808;80;20931;-77
2022/06/26 04:05:48;;;;;;;5.87;5.10;;;;;;;20.33;58.70;100641.27;3487964;79;21521;-77
2022/06/26 04:10:40;;;;;;;6.33;5.72;;;;;;;19.91;59.59;100642.72;3473177;79;20987;-77
2022/06/26 04:15:35;;;;;;;6.72;6.12;;;;;;;19.56;60.31;100649.59;3469140;80;20935;-77
2022/06/26 04:20:26;;;;;;;5.78;5.28;;;;;;;19.34;61.12;100652.68;3392369;81;20957;-77
2022/06/26 04:25:19;;;;;;;7.50;5.53;;;;;;;19.21;61.77;100649.89;3361479;81;21023;-77
2022/06/26 04:30:11;;;;;;;6.42;5.53;;;;;;;19.14;62.19;100656.17;3296111;83;21179;-77
2022/06/26 04:35:04;;;;;;;6.28;5.78;;;;;;;19.13;62.58;100663.19;3394547;81;22046;-77
2022/06/26 04:39:55;;;;;;;5.85;5.33;;;;;;;19.17;62.72;100664.00;3400132;83;20934;-77
2022/06/26 04:44:46;;;;;;;5.47;4.97;;;;;;;19.20;62.95;100667.91;3384026;83;21028;-77
2022/06/26 04:49:38;;;;;;;6.12;5.53;;;;;;;19.26;62.91;100673.04;3409680;83;21529;-77
2022/06/26 04:54:29;;;;;;;6.97;4.85;;;;;;;19.34;62.80;100671.13;3368370;83;22864;-77
2022/06/26 04:59:21;;;;;;;6.05;5.33;;;;;;;19.46;62.82;100672.66;3398480;83;21508;-77
2022/06/26 05:04:12;;;;;;;5.50;5.00;;;;;;;19.57;62.69;100673.30;3396682;81;21001;-77
2022/06/26 05:09:21;;;;;;;5.60;5.10;;;;;;;19.73;62.82;100679.59;3244501;86;21499;-77
2022/06/26 05:14:13;;;;;;;7.00;5.03;;;;;;;19.83;62.70;100681.59;3220049;84;21490;-77
2022/06/26 05:19:15;;;;;;;5.35;4.60;;;;;;;19.97;62.62;100684.79;3344396;85;21039;-77
2022/06/26 05:24:08;;;;;;;5.50;5.00;;;;;;;20.14;62.25;100689.23;3345545;84;21001;-77
2022/06/26 05:29:01;;;;;;;5.50;5.00;;;;;;;20.44;61.94;100698.64;3322916;83;21146;-77
2022/06/26 05:33:52;;;;;;;5.03;4.62;;;;;;;20.85;61.37;100703.83;3322425;85;21068;-77
2022/06/26 05:38:44;;;;;;;4.42;4.08;;;;;;;20.99;60.97;100701.70;3309923;83;20985;-77
2022/06/26 05:43:36;;;;;;;4.70;4.37;;;;;;;21.82;59.50;100706.45;3429285;80;21291;-77
2022/06/26 05:48:28;;;;;;;4.75;4.33;;;;;;;22.45;59.01;100708.06;3447473;80;22065;-77
2022/06/26 05:53:24;;;;;;;4.75;4.42;;;;;;;22.59;58.32;100714.67;3485036;79;21705;-77
2022/06/26 05:58:29;;;;;;;3.98;3.67;;;;;;;23.51;56.92;100708.84;3494112;79;21032;-77
2022/06/26 06:03:38;;;;;;;7.12;3.40;;;;;;;23.46;56.04;100713.45;3548306;80;21468;-77
2022/06/26 06:08:30;;;;;;;4.85;4.40;;;;;;;23.35;55.20;100713.84;3442523;79;22968;-77
2022/06/26 06:13:21;;;;;;;4.50;3.50;;;;;;;23.34;55.29;100717.88;3478595;79;22206;-77
2022/06/26 06:18:12;;;;;;;4.12;3.42;;;;;;;23.38;54.98;100714.22;3546933;78;20966;-77
2022/06/26 06:23:06;;;;;;;6.00;3.85;;;;;;;23.56;54.03;100724.14;3559172;79;20959;-77
2022/06/26 06:27:57;;;;;;;3.62;3.27;;;;;;;23.64;53.88;100729.16;3501701;79;20958;-78
2022/06/26 06:32:51;;;;;;;3.80;3.22;;;;;;;23.91;53.32;100729.95;3549212;79;21014;-78
2022/06/26 06:37:45;;;;;;;4.92;3.40;;;;;;;24.24;52.50;100733.54;3466876;79;21014;-78
2022/06/26 06:42:36;;;;;;;3.95;3.65;;;;;;;24.34;51.90;100731.36;3536123;79;21417;-78
2022/06/26 06:47:30;;;;;;;3.33;2.90;;;;;;;25.14;50.42;100737.85;3512028;79;20970;-78
2022/06/26 06:52:35;;;;;;;6.37;3.02;;;;;;;25.07;50.29;100739.91;3374474;83;21841;-78
2022/06/26 06:57:27;;;;;;;3.70;2.75;;;;;;;25.56;48.89;100739.56;3300957;83;21061;-78
2022/06/26 07:02:18;;;;;;;3.65;2.80;;;;;;;26.53;47.72;100738.56;3376571;83;21042;-78
2022/06/26 07:07:10;;;;;;;3.55;3.17;;;;;;;26.52;46.84;100740.82;3326509;84;23420;-78
2022/06/26 07:12:03;;;;;;;3.30;2.77;;;;;;;26.32;46.32;100739.61;3326569;83;20994;-78
2022/06/26 07:16:54;;;;;;;3.33;3.02;;;;;;;26.18;45.82;100748.27;3370119;83;21509;-78
2022/06/26 07:21:46;;;;;;;3.35;3.15;;;;;;;26.20;45.40;100747.27;3372561;84;22684;-78
2022/06/26 07:26:37;;;;;;;3.67;3.37;;;;;;;28.14;43.03;100756.00;3441952;79;20962;-79
2022/06/26 07:31:30;;;;;;;7.05;3.83;;;;;;;29.18;41.48;100750.08;3494600;79;21007;-79
2022/06/26 07:36:21;;;;;;;3.85;3.00;;;;;;;32.97;37.37;100738.56;3421647;80;21334;-79
2022/06/26 07:41:13;;;;;;;7.72;2.90;;;;;;;35.78;34.71;100732.52;3452671;80;20955;-79
2022/06/26 07:46:04;;;;;;;3.27;2.67;;;;;;;38.59;32.41;100747.50;3516220;78;21654;-80
2022/06/26 07:50:57;;;;;;;3.55;3.17;;;;;;;40.97;28.62;100736.80;3474800;80;21726;-80
2022/06/26 07:55:48;;;;;;;3.80;3.30;;;;;;;42.41;27.27;100743.92;3478422;79;21342;-80
2022/06/26 08:00:39;;;;;;;2.80;2.42;;;;;;;43.93;25.31;100741.03;3508385;79;20959;-80
2022/06/26 08:05:30;;;;;;;3.25;2.90;;;;;;;43.65;24.28;100746.86;3529147;78;20953;-81
2022/06/26 08:10:22;;;;;;;3.08;2.47;;;;;;;41.78;23.75;100749.89;3584637;79;21298;-81
2022/06/26 08:15:13;;;;;;;3.75;2.77;;;;;;;38.56;25.50;100742.37;3437087;79;21022;-81
2022/06/26 08:20:05;;;;;;;6.50;2.95;;;;;;;36.55;26.53;100739.59;3454746;80;20975;-81
2022/06/26 08:24:56;;;;;;;3.87;2.92;;;;;;;36.22;26.75;100740.33;3450095;81;20943;-82
2022/06/26 08:29:47;;;;;;;4.83;2.83;;;;;;;39.34;24.21;100743.49;3409291;82;20912;-82
2022/06/26 08:34:38;;;;;;;2.90;2.58;;;;;;;41.20;22.92;100758.73;3463056;79;21177;-82
2022/06/26 08:39:34;;;;;;;4.55;3.10;;;;;;;42.62;22.01;100748.75;3437627;80;20941;-82
2022/06/26 08:44:24;;;;;;;5.72;2.80;;;;;;;43.18;20.93;100768.91;3410514;80;20999;-82
2022/06/26 08:49:23;;;;;;;4.03;2.95;;;;;;;43.74;19.83;100749.85;3424566;81;21004;-82
2022/06/26 08:54:14;;;;;;;2.92;2.72;;;;;;;44.41;18.92;100756.92;3450857;81;20987;-82
2022/06/26 08:59:05;;;;;;;3.17;2.98;;;;;;;44.41;18.92;100756.92;3461361;81;22043;-82
2022/06/26 09:03:57;;;;;;;3.00;2.80;;;;;;;45.08;18.91;100754.81;3412831;81;20953;-82
2022/06/26 09:08:51;;;;;;;3.40;3.10;;;;;;;45.49;18.51;100748.55;3443322;81;22034;-81
2022/06/26 09:13:45;;;;;;;3.80;2.42;;;;;;;45.49;18.51;100748.55;3425969;80;20972;-81
2022/06/26 09:18:42;;;;;;;3.12;2.75;;;;;;;42.24;19.61;100742.34;3424198;80;20937;-81
2022/06/26 09:23:36;;;;;;;3.00;2.70;;;;;;;39.31;21.16;100741.94;3438456;81;21203;-80
2022/06/26 09:28:28;;;;;;;3.17;2.87;;;;;;;37.33;22.57;100748.99;3423819;81;21442;-81
2022/06/26 09:33:23;;;;;;;3.37;2.40;;;;;;;36.94;23.38;100749.08;3422190;81;20967;-81
2022/06/26 09:38:25;;;;;;;4.25;2.30;;;;;;;38.90;21.59;100738.91;3425646;79;20983;-81
2022/06/26 09:43:33;;;;;;;2.30;2.10;;;;;;;38.98;21.09;100747.14;3416227;80;21387;-80
2022/06/26 09:48:25;;;;;;;3.30;2.98;;;;;;;37.56;22.29;100742.22;3426557;80;20944;-81
2022/06/26 09:53:18;;;;;;;4.05;2.40;;;;;;;39.50;21.35;100745.48;3430409;80;21466;-81
2022/06/26 09:58:10;;;;;;;3.22;2.70;;;;;;;41.23;20.19;100739.34;3466867;80;21004;-81
2022/06/26 10:08:17;;;;;;;5.60;3.00;;;;;;;42.90;18.50;100747.30;3462783;80;20951;-81
2022/06/26 10:13:11;;;;;;;2.75;2.55;;;;;;;43.28;18.48;100739.06;3471030;80;21136;-81
2022/06/26 10:18:20;;;;;;;2.45;2.25;;;;;;;43.53;17.68;100736.38;3454087;80;20964;-81
2022/06/26 10:23:11;;;;;;;3.90;2.30;;;;;;;43.61;17.90;100731.34;3447796;80;21636;-81
2022/06/26 10:28:02;;;;;;;4.33;2.87;;;;;;;43.48;17.70;100729.26;3454098;80;21262;-80
2022/06/26 10:33:14;;;;;;;2.70;2.50;;;;;;;43.28;17.88;100729.48;3438121;80;20936;-80
2022/06/26 10:38:27;;;;;;;3.95;2.33;;;;;;;43.07;18.50;100731.06;3430528;80;21462;-80
2022/06/26 10:43:21;;;;;;;3.08;2.20;;;;;;;42.93;18.36;100726.42;3406594;80;21644;-80
2022/06/26 10:48:20;;;;;;;3.20;2.52;;;;;;;42.80;18.40;100715.61;3419257;80;20940;-80
2022/06/26 10:53:32;;;;;;;2.42;2.33;;;;;;;42.66;19.10;100713.70;3470170;80;20996;-80
2022/06/26 10:58:28;;;;;;;2.37;2.27;;;;;;;42.35;18.73;100710.48;3455357;80;21316;-80
2022/06/26 11:03:20;;;;;;;3.08;2.50;;;;;;;41.61;19.02;100720.45;3473401;79;20971;-80
2022/06/26 11:08:16;;;;;;;3.95;2.30;;;;;;;39.75;20.29;100715.99;3462812;80;21809;-80
2022/06/26 11:13:08;;;;;;;2.85;2.30;;;;;;;38.48;22.04;100723.27;3449436;80;21636;-80
2022/06/26 11:18:04;;;;;;;3.22;2.85;;;;;;;37.48;22.63;100713.62;3436368;80;20963;-79
2022/06/26 11:22:55;;;;;;;3.35;2.30;;;;;;;36.79;22.86;100712.95;3440567;80;20987;-80
2022/06/26 11:27:52;;;;;;;2.52;2.42;;;;;;;36.29;23.82;100711.73;3480025;80;21482;-79
2022/06/26 11:32:45;;;;;;;2.58;2.27;;;;;;;36.02;23.44;100714.59;3393929;80;21510;-80
2022/06/26 11:37:38;;;;;;;2.70;2.50;;;;;;;35.83;24.10;100699.16;3458287;80;21003;-80
2022/06/26 11:42:29;;;;;;;3.08;2.60;;;;;;;35.65;24.17;100694.87;3418691;80;20909;-80
2022/06/26 11:47:22;;;;;;;5.53;2.40;;;;;;;35.63;25.61;100692.81;3421857;80;21191;-80
2022/06/26 11:52:14;;;;;;;3.45;2.40;;;;;;;35.51;24.74;100689.85;3485223;80;21549;-80
2022/06/26 11:57:10;;;;;;;3.10;2.80;;;;;;;35.47;25.00;100698.73;3473134;80;20961;-80
2022/06/26 12:02:02;;;;;;;2.90;2.70;;;;;;;35.46;25.79;100692.95;3471559;80;20952;-79
2022/06/26 12:06:53;;;;;;;2.60;2.40;;;;;;;35.39;24.69;100690.94;3467539;80;20952;-80
2022/06/26 12:11:45;;;;;;;4.72;2.50;;;;;;;35.41;24.82;100701.11;3456227;80;20932;-80
2022/06/26 12:16:48;;;;;;;4.53;2.98;;;;;;;35.17;25.17;100696.85;3469842;79;21025;-80
2022/06/26 12:21:39;;;;;;;3.00;2.80;;;;;;;35.15;25.32;100692.08;3482781;79;20951;-79
2022/06/26 12:26:36;;;;;;;4.20;2.42;;;;;;;35.15;25.52;100681.27;3455875;79;21556;-79
2022/06/26 12:31:27;;;;;;;2.77;2.52;;;;;;;35.37;26.03;100687.52;3514822;79;21133;-79
2022/06/26 12:36:18;;;;;;;2.83;2.58;;;;;;;35.45;26.72;100687.67;3490010;79;21010;-79
2022/06/26 12:41:17;;;;;;;3.22;2.92;;;;;;;35.16;25.73;100691.08;3482480;79;21975;-79
2022/06/26 12:46:08;;;;;;;3.00;2.55;;;;;;;35.12;25.50;100688.29;3484603;79;20927;-79
2022/06/26 12:50:59;;;;;;;2.77;2.55;;;;;;;34.99;25.69;100675.50;3482482;79;20996;-79
2022/06/26 12:55:50;;;;;;;2.85;2.55;;;;;;;35.05;25.53;100681.70;3507759;79;21038;-79
2022/06/26 13:00:41;;;;;;;3.02;2.72;;;;;;;35.01;25.59;100676.22;3557470;79;20926;-80
2022/06/26 13:05:33;;;;;;;5.42;2.92;;;;;;;35.03;26.01;100682.34;3553663;79;21877;-80
2022/06/26 13:10:24;;;;;;;2.95;2.83;;;;;;;34.98;25.48;100687.28;3510003;79;20952;-78
2022/06/26 13:15:15;;;;;;;2.27;2.08;;;;;;;34.98;25.74;100685.94;3462150;79;20966;-77
2022/06/26 13:20:08;;;;;;;2.72;2.52;;;;;;;35.02;26.38;100684.20;3496447;79;20959;-77
2022/06/26 13:24:59;;;;;;;2.80;2.40;;;;;;;35.03;26.44;100684.54;3433061;79;20971;-78
2022/06/26 13:29:50;;;;;;;3.37;2.50;;;;;;;35.23;26.48;100680.13;3438219;79;22048;-78
2022/06/26 13:34:41;;;;;;;3.10;2.80;;;;;;;35.39;26.90;100678.27;3502580;79;22082;-79
2022/06/26 13:39:32;;;;;;;47.15;6.85;;;;;;;35.42;26.47;100681.22;3477359;79;20923;-79
2022/06/26 13:44:24;;;;;;;4.92;3.25;;;;;;;35.50;26.07;100693.06;3488772;79;21056;-78
2022/06/26 13:49:15;;;;;;;2.50;2.40;;;;;;;35.34;25.71;100679.67;3418653;79;21006;-80
2022/06/26 13:54:07;;;;;;;3.15;2.95;;;;;;;35.39;25.70;100680.13;3498573;79;21239;-79
2022/06/26 13:58:58;;;;;;;7.78;7.17;;;;;;;35.30;25.45;100693.45;3556275;79;22086;-79
2022/06/26 14:03:50;;;;;;;8.70;8.10;;;;;;;34.98;25.72;100684.58;3556752;79;20977;-78
2022/06/26 14:08:41;;;;;;;4.20;2.60;;;;;;;34.82;25.76;100688.59;3551152;79;20994;-79
2022/06/26 14:13:33;;;;;;;3.42;2.98;;;;;;;34.82;26.14;100679.15;3467227;79;21117;-79
2022/06/26 14:18:24;;;;;;;2.60;2.40;;;;;;;34.31;26.69;100678.54;3502243;79;20971;-79
2022/06/26 14:28:35;;;;;;;3.05;2.75;;;;;;;34.46;27.10;100678.58;3458692;79;21024;-79
2022/06/26 14:33:27;;;;;;;5.47;2.95;;;;;;;34.59;26.76;100689.69;3523086;79;21013;-79
2022/06/26 14:38:18;;;;;;;3.52;3.00;;;;;;;34.38;26.41;100685.98;3505905;79;20946;-79
2022/06/26 14:43:09;;;;;;;4.80;2.87;;;;;;;34.14;26.67;100680.75;3514179;79;21103;-79
2022/06/26 14:48:01;;;;;;;3.00;2.80;;;;;;;33.95;26.42;100677.89;3460834;79;20977;-79
2022/06/26 14:52:53;;;;;;;3.20;3.00;;;;;;;34.16;26.88;100669.84;3490314;79;20995;-79
2022/06/26 14:57:45;;;;;;;2.90;2.70;;;;;;;34.27;26.69;100673.02;3462560;80;20938;-79
2022/06/26 15:02:36;;;;;;;3.55;3.27;;;;;;;34.24;26.50;100673.30;3439020;80;20955;-79
2022/06/26 15:07:28;;;;;;;3.12;2.83;;;;;;;34.12;26.66;100670.59;3458078;79;21470;-79
2022/06/26 15:12:19;;;;;;;3.22;2.92;;;;;;;34.08;26.49;100673.19;3493869;80;20967;-79
2022/06/26 15:17:10;;;;;;;2.85;2.65;;;;;;;34.14;26.67;100667.27;3509685;80;20944;-79
2022/06/26 15:22:01;;;;;;;3.22;2.72;;;;;;;34.03;26.65;100665.11;3476574;80;21010;-79
2022/06/26 15:26:52;;;;;;;3.12;2.77;;;;;;;33.87;26.80;100653.39;3492466;79;20995;-79
2022/06/26 15:31:44;;;;;;;3.20;2.75;;;;;;;33.84;27.31;100653.63;3468568;79;21010;-78
2022/06/26 15:36:35;;;;;;;4.33;3.22;;;;;;;33.79;27.16;100657.57;3487870;79;20963;-79
2022/06/26 15:41:27;;;;;;;3.05;2.77;;;;;;;33.65;27.22;100652.42;3506980;79;21406;-79
2022/06/26 15:46:18;;;;;;;4.15;3.00;;;;;;;33.64;27.64;100649.34;3442303;79;20939;-79
2022/06/26 15:51:10;;;;;;;2.67;2.52;;;;;;;33.59;27.16;100646.16;3537873;79;20989;-78
2022/06/26 15:56:03;;;;;;;3.15;2.95;;;;;;;33.57;27.11;100642.27;3555125;79;21471;-76
2022/06/26 16:00:54;;;;;;;3.72;3.00;;;;;;;33.41;27.13;100648.05;3532145;79;20963;-76
2022/06/26 16:05:46;;;;;;;4.17;2.92;;;;;;;33.12;27.49;100649.47;3529366;79;21445;-76
2022/06/26 16:10:38;;;;;;;2.98;2.77;;;;;;;33.02;27.95;100643.97;3554893;79;21386;-76
2022/06/26 16:15:29;;;;;;;2.90;2.58;;;;;;;32.33;28.72;100651.47;3507004;79;21016;-78
2022/06/26 16:20:20;;;;;;;4.03;3.02;;;;;;;32.34;28.93;100655.00;3482972;79;21293;-78
2022/06/26 16:30:22;;;;;;;5.42;3.15;;;;;;;32.39;29.60;100656.86;3441933;79;21391;-78
2022/06/26 16:35:13;;;;;;;3.55;2.92;;;;;;;32.34;29.28;100650.97;3451791;79;21041;-78
2022/06/26 16:40:06;;;;;;;3.72;3.02;;;;;;;32.29;29.10;100650.84;3449691;79;20975;-78
2022/06/26 16:44:57;;;;;;;3.10;2.90;;;;;;;32.21;29.15;100650.58;3462981;79;22647;-78
2022/06/26 16:49:50;;;;;;;3.75;3.42;;;;;;;32.15;29.55;100651.02;3439669;79;21031;-78
2022/06/26 16:54:41;;;;;;;3.35;2.90;;;;;;;32.00;29.47;100652.12;3458486;79;20986;-79
2022/06/26 16:59:33;;;;;;;5.25;3.17;;;;;;;31.88;29.53;100656.10;3501706;79;21532;-79
2022/06/26 17:04:24;;;;;;;5.60;3.40;;;;;;;31.78;29.69;100651.02;3474244;79;20989;-79
2022/06/26 17:09:15;;;;;;;3.10;2.90;;;;;;;31.68;30.01;100654.03;3424153;79;21003;-78
2022/06/26 17:14:07;;;;;;;4.00;2.85;;;;;;;31.60;30.95;100655.06;3435130;79;21003;-79
2022/06/26 17:18:58;;;;;;;3.35;2.90;;;;;;;31.46;30.71;100650.19;3471419;79;22148;-79
2022/06/26 17:23:50;;;;;;;3.27;2.92;;;;;;;31.29;31.08;100659.44;3490186;79;20956;-79
2022/06/26 17:28:41;;;;;;;3.77;3.47;;;;;;;31.20;30.95;100661.92;3509659;79;20957;-79
2022/06/26 17:33:34;;;;;;;5.55;3.10;;;;;;;31.05;32.01;100662.05;3481633;79;21050;-79
2022/06/26 17:38:26;;;;;;;4.37;3.10;;;;;;;30.86;31.84;100662.91;3506655;79;21270;-78
2022/06/26 17:43:17;;;;;;;2.87;2.67;;;;;;;30.70;32.19;100669.32;3458373;79;20971;-79
2022/06/26 17:48:08;;;;;;;3.87;3.58;;;;;;;30.51;32.71;100670.19;3519465;79;20967;-78
2022/06/26 17:53:01;;;;;;;4.10;2.72;;;;;;;30.28;33.58;100671.24;3493205;79;22393;-78
2022/06/26 17:57:53;;;;;;;4.17;2.60;;;;;;;30.03;33.75;100671.52;3507390;79;21692;-78
2022/06/26 18:02:45;;;;;;;3.60;3.30;;;;;;;29.77;34.26;100675.02;3505880;79;20963;-78
2022/06/26 18:07:36;;;;;;;5.55;3.00;;;;;;;29.46;35.31;100672.45;3507034;79;20962;-78
2022/06/26 18:12:27;;;;;;;3.70;3.20;;;;;;;29.16;36.22;100671.69;3519417;79;20935;-78
2022/06/26 18:17:19;;;;;;;3.52;3.25;;;;;;;28.87;36.23;100676.48;3526883;79;21003;-78
2022/06/26 18:22:10;;;;;;;4.00;3.20;;;;;;;28.59;36.67;100681.28;3479870;80;22041;-78
2022/06/26 18:27:03;;;;;;;3.90;3.60;;;;;;;28.31;37.38;100686.89;3425464;80;20977;-78
2022/06/26 18:31:55;;;;;;;7.67;3.85;;;;;;;28.06;38.26;100683.43;3424974;80;21630;-78
2022/06/26 18:36:48;;;;;;;5.55;5.03;;;;;;;27.82;38.67;100687.45;3367241;80;20991;-78
2022/06/26 18:41:39;;;;;;;8.63;6.62;;;;;;;27.61;39.60;100698.34;3474793;80;20933;-78
2022/06/26 18:46:31;;;;;;;10.03;6.03;;;;;;;27.39;39.65;100700.00;3459587;80;21115;-77
2022/06/26 18:51:22;;;;;;;5.72;5.12;;;;;;;27.17;40.03;100696.25;3429885;80;20990;-78
2022/06/26 18:56:13;;;;;;;7.67;4.80;;;;;;;26.95;40.41;100704.49;3404196;80;20956;-78
2022/06/26 19:01:06;;;;;;;7.15;4.28;;;;;;;26.70;41.05;100707.55;3447272;80;21234;-78
2022/06/26 19:05:57;;;;;;;9.48;4.97;;;;;;;26.49;41.23;100721.00;3412530;81;21030;-78
2022/06/26 19:10:49;;;;;;;5.25;4.30;;;;;;;26.23;42.04;100724.93;3442113;80;21127;-78
2022/06/26 19:15:40;;;;;;;4.42;3.85;;;;;;;26.06;42.71;100723.09;3445915;80;20915;-78
2022/06/26 19:20:33;;;;;;;7.55;5.30;;;;;;;25.86;43.33;100737.29;3444269;79;20994;-78
2022/06/26 19:25:24;;;;;;;9.33;4.65;;;;;;;25.67;43.65;100742.62;3464938;79;21030;-78
2022/06/26 19:30:17;;;;;;;6.97;4.08;;;;;;;25.44;44.30;100739.19;3436287;79;21660;-78
2022/06/26 19:35:09;;;;;;;13.60;5.10;;;;;;;25.30;44.34;100744.26;3413242;79;21035;-78
2022/06/26 19:40:01;;;;;;;8.55;4.40;;;;;;;25.10;45.24;100751.28;3435470;79;21014;-78
2022/06/26 19:45:01;;;;;;;6.33;4.37;;;;;;;24.96;45.61;100751.00;3496808;80;21473;-78
2022/06/26 19:55:04;;;;;;;5.55;4.42;;;;;;;24.62;46.63;100768.36;3488837;79;20958;-78
2022/06/26 20:00:00;;;;;;;4.90;4.50;;;;;;;24.45;47.00;100771.68;3448378;79;21801;-78
2022/06/26 20:04:51;;;;;;;5.92;4.15;;;;;;;24.31;47.35;100779.33;3506075;79;20924;-77
2022/06/26 20:09:43;;;;;;;6.95;4.47;;;;;;;24.14;47.98;100778.64;3484092;79;20979;-77
2022/06/26 20:14:34;;;;;;;7.17;4.45;;;;;;;24.00;48.16;100776.98;3448512;79;20959;-77
2022/06/26 20:19:25;;;;;;;5.30;4.12;;;;;;;23.91;48.82;100783.50;3477126;79;20915;-77
2022/06/26 20:24:19;;;;;;;5.10;4.35;;;;;;;23.76;49.11;100775.63;3419277;79;21171;-77
2022/06/26 20:29:12;;;;;;;5.78;5.12;;;;;;;23.70;49.64;100779.84;3501839;79;21066;-78
2022/06/26 20:34:04;;;;;;;5.55;4.87;;;;;;;23.55;49.63;100782.10;3460917;79;20936;-78
2022/06/26 20:38:55;;;;;;;7.25;4.90;;;;;;;23.35;49.88;100779.31;3505656;79;20935;-78
2022/06/26 20:43:46;;;;;;;10.28;5.00;;;;;;;23.24;50.20;100787.64;3479567;79;20935;-78
2022/06/26 20:48:38;;;;;;;7.62;5.47;;;;;;;23.09;50.68;100791.70;3481767;79;22053;-78
2022/06/26 20:53:30;;;;;;;10.18;5.17;;;;;;;22.96;51.15;100794.30;3480860;79;21390;-78
2022/06/26 20:58:22;;;;;;;7.75;5.55;;;;;;;22.79;51.24;100798.38;3451877;79;20994;-78
2022/06/26 21:03:13;;;;;;;6.67;6.00;;;;;;;22.67;51.71;100801.89;3505893;79;21476;-78
2022/06/26 21:08:05;;;;;;;11.75;5.33;;;;;;;22.54;52.17;100801.42;3507014;79;21038;-78
2022/06/26 21:12:57;;;;;;;7.35;5.12;;;;;;;22.45;52.74;100804.75;3463154;79;21449;-78
2022/06/26 21:17:48;;;;;;;5.95;5.35;;;;;;;22.33;52.90;100805.12;3424700;79;21653;-78
2022/06/26 21:22:40;;;;;;;7.80;4.97;;;;;;;22.22;53.15;100809.86;3479948;80;20967;-77
2022/06/26 21:27:31;;;;;;;6.22;5.62;;;;;;;22.06;53.18;100809.44;3442955;80;21494;-77
2022/06/26 21:32:25;;;;;;;6.72;6.15;;;;;;;21.97;53.58;100806.59;3447857;80;20968;-77
2022/06/26 21:37:17;;;;;;;6.10;5.60;;;;;;;21.87;54.26;100809.09;3447152;80;21030;-77
2022/06/26 21:42:08;;;;;;;6.15;5.30;;;;;;;21.77;54.22;100810.28;3453665;80;21011;-77
2022/06/26 21:47:00;;;;;;;5.62;5.22;;;;;;;21.65;54.06;100811.02;3384727;80;20988;-78
2022/06/26 21:51:51;;;;;;;6.00;5.30;;;;;;;21.57;54.52;100810.80;3405303;80;21424;-77
2022/06/26 21:56:42;;;;;;;6.87;5.25;;;;;;;21.50;55.19;100815.42;3399466;80;22638;-77
2022/06/26 22:01:34;;;;;;;6.80;5.83;;;;;;;21.45;55.08;100810.67;3419794;80;21023;-77
2022/06/26 22:06:25;;;;;;;6.20;5.70;;;;;;;21.37;55.19;100813.95;3447130;80;21538;-77
2022/06/26 22:11:16;;;;;;;6.20;5.65;;;;;;;21.25;55.24;100813.37;3436336;80;21015;-77
2022/06/26 22:16:07;;;;;;;5.85;5.35;;;;;;;21.16;55.81;100818.02;3418152;80;21490;-77
2022/06/26 22:20:58;;;;;;;9.88;5.72;;;;;;;21.09;56.13;100825.26;3408024;80;21042;-77
2022/06/26 22:31:01;;;;;;;8.43;6.50;;;;;;;20.97;56.62;100824.23;3254619;85;21599;-77
2022/06/26 22:35:52;;;;;;;7.62;6.15;;;;;;;20.86;57.02;100825.36;3254836;85;21064;-79
2022/06/26 22:40:43;;;;;;;8.20;6.10;;;;;;;20.81;57.23;100826.38;3229422;84;20966;-79
2022/06/26 22:45:35;;;;;;;7.58;6.08;;;;;;;20.73;57.42;100826.56;3245393;86;21038;-79
2022/06/26 22:50:26;;;;;;;9.30;6.95;;;;;;;20.66;57.91;100819.69;3258577;86;21139;-78
2022/06/26 22:55:17;;;;;;;7.45;6.55;;;;;;;20.54;57.99;100826.94;3231082;86;21121;-79
2022/06/26 23:00:13;;;;;;;7.40;6.15;;;;;;;20.45;58.22;100827.61;3292546;80;20983;-79
2022/06/26 23:05:05;;;;;;;7.70;6.30;;;;;;;20.33;58.21;100828.73;3400724;80;21541;-80